createdAt,value
2023-01-28T00:00:12.149Z,3.66
2023-01-28T00:01:12.148Z,3.64
2023-01-28T00:02:12.127Z,3.64
2023-01-28T00:03:12.103Z,3.63
2023-01-28T00:04:12.094Z,3.63
2023-01-28T00:05:12.696Z,3.63
2023-01-28T00:06:12.086Z,3.63
2023-01-28T00:07:12.054Z,3.64
2023-01-28T00:08:12.050Z,3.64
2023-01-28T00:09:12.017Z,3.63
2023-01-28T00:10:12.018Z,3.63
2023-01-28T00:11:12.007Z,3.64
2023-01-28T00:12:11.985Z,3.61
2023-01-28T00:13:11.970Z,3.58
2023-01-28T00:14:11.972Z,3.58
2023-01-28T00:15:12.283Z,3.58
2023-01-28T00:16:11.983Z,3.56
2023-01-28T00:17:11.941Z,3.56
2023-01-28T00:18:11.908Z,3.55
2023-01-28T00:19:11.885Z,3.55
2023-01-28T00:20:11.886Z,3.56
2023-01-28T00:21:11.882Z,3.58
2023-01-28T00:22:11.847Z,3.61
2023-01-28T00:23:11.835Z,3.61
2023-01-28T00:24:11.857Z,3.63
2023-01-28T00:25:11.867Z,3.63
2023-01-28T00:26:11.829Z,3.64
2023-01-28T00:27:11.777Z,3.67
2023-01-28T00:28:11.773Z,3.63
2023-01-28T00:29:11.756Z,3.64
2023-01-28T00:30:11.751Z,3.64
2023-01-28T00:31:11.786Z,3.64
2023-01-28T00:32:11.723Z,3.67
2023-01-28T00:33:11.697Z,3.67
2023-01-28T00:34:11.695Z,3.67
2023-01-28T00:35:11.713Z,3.63
2023-01-28T00:36:11.688Z,3.63
2023-01-28T00:37:11.646Z,3.58
2023-01-28T00:38:11.646Z,3.53
2023-01-28T00:39:11.623Z,3.52
2023-01-28T00:40:11.678Z,3.52
2023-01-28T00:41:11.617Z,3.52
2023-01-28T00:42:11.586Z,3.52
2023-01-28T00:43:11.579Z,3.55
2023-01-28T00:44:11.587Z,3.55
2023-01-28T00:45:11.692Z,3.55
2023-01-28T00:46:11.612Z,3.53
2023-01-28T00:47:11.537Z,3.53
2023-01-28T00:48:11.516Z,3.55
2023-01-28T00:49:11.569Z,3.53
2023-01-28T00:50:11.486Z,3.53
2023-01-28T00:51:11.490Z,3.50
2023-01-28T00:52:11.455Z,3.48
2023-01-28T00:53:11.446Z,3.48
2023-01-28T00:54:11.441Z,3.49
2023-01-28T00:55:11.514Z,3.46
2023-01-28T00:56:11.411Z,3.43
2023-01-28T00:57:11.396Z,3.40
2023-01-28T00:58:11.374Z,3.40
2023-01-28T00:59:11.356Z,3.34
2023-01-28T01:00:11.364Z,3.36
2023-01-28T01:01:11.358Z,3.34
2023-01-28T01:02:11.352Z,3.40
2023-01-28T01:03:11.304Z,3.40
2023-01-28T01:04:11.299Z,3.41
2023-01-28T01:05:11.283Z,3.43
2023-01-28T01:06:11.276Z,3.45
2023-01-28T01:07:11.267Z,3.45
2023-01-28T01:08:11.236Z,3.45
2023-01-28T01:09:11.232Z,3.48
2023-01-28T01:10:11.215Z,3.49
2023-01-28T01:11:11.194Z,3.52
2023-01-28T01:12:11.205Z,3.49
2023-01-28T01:13:11.175Z,3.49
2023-01-28T01:14:11.183Z,3.49
2023-01-28T01:15:11.159Z,3.49
2023-01-28T01:16:11.256Z,3.49
2023-01-28T01:17:11.166Z,3.49
2023-01-28T01:18:11.115Z,3.48
2023-01-28T01:19:11.093Z,3.48
2023-01-28T01:20:11.084Z,3.45
2023-01-28T01:21:11.064Z,3.45
2023-01-28T01:22:11.081Z,3.45
2023-01-28T01:23:11.042Z,3.40
2023-01-28T01:24:11.058Z,3.37
2023-01-28T01:25:11.015Z,3.37
2023-01-28T01:26:11.008Z,3.36
2023-01-28T01:27:11.003Z,3.36
2023-01-28T01:28:10.974Z,3.36
2023-01-28T01:29:10.963Z,3.31
2023-01-28T01:30:10.951Z,3.31
2023-01-28T01:31:10.935Z,3.31
2023-01-28T01:32:10.990Z,3.29
2023-01-28T01:33:10.903Z,3.31
2023-01-28T01:34:10.885Z,3.30
2023-01-28T01:35:10.883Z,3.29
2023-01-28T01:36:10.872Z,3.27
2023-01-28T01:37:10.854Z,3.27
2023-01-28T01:38:10.843Z,3.26
2023-01-28T01:39:10.827Z,3.24
2023-01-28T01:40:10.815Z,3.21
2023-01-28T01:41:10.832Z,3.21
2023-01-28T01:42:10.814Z,3.22
2023-01-28T01:43:10.799Z,3.22
2023-01-28T01:44:10.817Z,3.21
2023-01-28T01:45:10.783Z,3.22
2023-01-28T01:46:10.814Z,3.21
2023-01-28T01:47:10.724Z,3.21
2023-01-28T01:48:10.728Z,3.22
2023-01-28T01:49:10.692Z,3.21
2023-01-28T01:50:10.684Z,3.22
2023-01-28T01:51:10.678Z,3.19
2023-01-28T01:52:10.653Z,3.16
2023-01-28T01:53:10.693Z,3.18
2023-01-28T01:54:10.612Z,3.18
2023-01-28T01:55:10.611Z,3.21
2023-01-28T01:56:10.628Z,3.22
2023-01-28T01:57:10.613Z,3.26
2023-01-28T01:58:10.599Z,3.29
2023-01-28T01:59:10.619Z,3.29
2023-01-28T02:00:10.551Z,3.29
2023-01-28T02:01:10.544Z,3.29
2023-01-28T02:02:10.599Z,3.29
2023-01-28T02:03:10.588Z,3.29
2023-01-28T02:04:10.498Z,3.27
2023-01-28T02:05:10.483Z,3.30
2023-01-28T02:06:10.474Z,3.31
2023-01-28T02:07:10.470Z,3.33
2023-01-28T02:08:10.462Z,3.34
2023-01-28T02:09:10.432Z,3.31
2023-01-28T02:10:10.412Z,3.30
2023-01-28T02:11:10.401Z,3.30
2023-01-28T02:12:10.392Z,3.33
2023-01-28T02:13:10.403Z,3.33
2023-01-28T02:14:14.479Z,3.34
2023-01-28T02:15:11.370Z,3.34
2023-01-28T02:16:10.331Z,3.33
2023-01-28T02:17:10.319Z,3.31
2023-01-28T02:18:10.323Z,3.31
2023-01-28T02:19:10.313Z,3.31
2023-01-28T02:20:10.279Z,3.33
2023-01-28T02:21:10.269Z,3.33
2023-01-28T02:22:10.250Z,3.31
2023-01-28T02:23:10.268Z,3.33
2023-01-28T02:24:10.283Z,3.36
2023-01-28T02:25:10.225Z,3.34
2023-01-28T02:26:10.201Z,3.36
2023-01-28T02:27:10.191Z,3.37
2023-01-28T02:28:10.198Z,3.40
2023-01-28T02:29:10.165Z,3.37
2023-01-28T02:30:10.164Z,3.37
2023-01-28T02:31:10.188Z,3.40
2023-01-28T02:32:10.118Z,3.40
2023-01-28T02:33:10.121Z,3.37
2023-01-28T02:34:10.099Z,3.40
2023-01-28T02:35:10.079Z,3.37
2023-01-28T02:36:10.072Z,3.41
2023-01-28T02:37:10.054Z,3.41
2023-01-28T02:38:10.039Z,3.36
2023-01-28T02:39:10.048Z,3.37
2023-01-28T02:40:10.028Z,3.36
2023-01-28T02:41:09.998Z,3.34
2023-01-28T02:42:10.001Z,3.34
2023-01-28T02:43:09.978Z,3.33
2023-01-28T02:44:09.984Z,3.34
2023-01-28T02:45:09.964Z,3.34
2023-01-28T02:46:09.957Z,3.33
2023-01-28T02:47:09.919Z,3.33
2023-01-28T02:48:09.909Z,3.34
2023-01-28T02:49:09.929Z,3.34
2023-01-28T02:50:09.878Z,3.33
2023-01-28T02:51:09.869Z,3.34
2023-01-28T02:52:09.848Z,3.36
2023-01-28T02:53:09.849Z,3.36
2023-01-28T02:54:09.838Z,3.34
2023-01-28T02:55:09.831Z,3.40
2023-01-28T02:56:09.807Z,3.37
2023-01-28T02:57:09.831Z,3.37
2023-01-28T02:58:09.779Z,3.37
2023-01-28T02:59:09.778Z,3.36
2023-01-28T03:00:09.748Z,3.33
2023-01-28T03:01:09.739Z,3.30
2023-01-28T03:02:09.730Z,3.30
2023-01-28T03:03:09.721Z,3.30
2023-01-28T03:04:09.740Z,3.30
2023-01-28T03:05:09.687Z,3.30
2023-01-28T03:06:09.680Z,3.29
2023-01-28T03:07:09.668Z,3.30
2023-01-28T03:08:09.639Z,3.29
2023-01-28T03:09:09.665Z,3.30
2023-01-28T03:10:09.617Z,3.29
2023-01-28T03:11:09.647Z,3.30
2023-01-28T03:12:09.593Z,3.29
2023-01-28T03:13:09.597Z,3.30
2023-01-28T03:14:09.582Z,3.30
2023-01-28T03:15:09.559Z,3.31
2023-01-28T03:16:09.574Z,3.31
2023-01-28T03:17:09.527Z,3.29
2023-01-28T03:18:09.544Z,3.30
2023-01-28T03:19:09.540Z,3.31
2023-01-28T03:20:09.483Z,3.29
2023-01-28T03:21:09.483Z,3.30
2023-01-28T03:22:09.447Z,3.27
2023-01-28T03:23:09.468Z,3.27
2023-01-28T03:24:09.488Z,3.26
2023-01-28T03:25:09.469Z,3.22
2023-01-28T03:26:09.403Z,3.19
2023-01-28T03:27:09.387Z,3.21
2023-01-28T03:28:09.372Z,3.19
2023-01-28T03:29:09.395Z,3.18
2023-01-28T03:30:09.351Z,3.16
2023-01-28T03:31:09.378Z,3.16
2023-01-28T03:32:09.366Z,3.16
2023-01-28T03:33:09.323Z,3.15
2023-01-28T03:34:09.307Z,3.16
2023-01-28T03:35:09.337Z,3.16
2023-01-28T03:36:09.278Z,3.18
2023-01-28T03:37:09.269Z,3.16
2023-01-28T03:38:09.246Z,3.15
2023-01-28T03:39:09.235Z,3.19
2023-01-28T03:40:09.236Z,3.18
2023-01-28T03:41:09.221Z,3.21
2023-01-28T03:42:09.187Z,3.19
2023-01-28T03:43:09.206Z,3.15
2023-01-28T03:44:09.164Z,3.15
2023-01-28T03:45:09.166Z,3.12
2023-01-28T03:46:09.148Z,3.11
2023-01-28T03:47:09.138Z,3.11
2023-01-28T03:48:09.106Z,3.09
2023-01-28T03:49:09.109Z,3.12
2023-01-28T03:50:09.109Z,3.13
2023-01-28T03:51:09.096Z,3.16
2023-01-28T03:52:09.063Z,3.15
2023-01-28T03:53:09.066Z,3.18
2023-01-28T03:54:09.040Z,3.16
2023-01-28T03:55:09.043Z,3.15
2023-01-28T03:56:09.002Z,3.13
2023-01-28T03:57:08.996Z,3.13
2023-01-28T03:58:08.978Z,3.15
2023-01-28T03:59:08.981Z,3.15
2023-01-28T04:00:08.967Z,3.16
2023-01-28T04:01:08.948Z,3.13
2023-01-28T04:02:08.939Z,3.11
2023-01-28T04:03:09.007Z,3.11
2023-01-28T04:04:08.902Z,3.12
2023-01-28T04:05:08.904Z,3.11
2023-01-28T04:06:08.874Z,3.11
2023-01-28T04:07:08.886Z,3.09
2023-01-28T04:08:08.855Z,3.09
2023-01-28T04:09:08.843Z,3.05
2023-01-28T04:10:08.867Z,3.05
2023-01-28T04:11:08.814Z,2.97
2023-01-28T04:12:08.793Z,2.93
2023-01-28T04:13:08.784Z,2.90
2023-01-28T04:14:08.783Z,2.91
2023-01-28T04:15:08.775Z,2.90
2023-01-28T04:16:08.910Z,2.90
2023-01-28T04:17:08.767Z,2.87
2023-01-28T04:18:08.721Z,2.85
2023-01-28T04:19:08.714Z,2.85
2023-01-28T04:20:08.724Z,2.85
2023-01-28T04:21:08.674Z,2.83
2023-01-28T04:22:08.667Z,2.80
2023-01-28T04:23:08.652Z,2.77
2023-01-28T04:24:08.649Z,2.77
2023-01-28T04:25:08.643Z,2.79
2023-01-28T04:26:08.618Z,2.80
2023-01-28T04:27:08.594Z,2.87
2023-01-28T04:28:08.595Z,2.87
2023-01-28T04:29:08.575Z,2.91
2023-01-28T04:30:08.561Z,2.91
2023-01-28T04:31:08.658Z,2.94
2023-01-28T04:32:11.308Z,2.94
2023-01-28T04:33:08.516Z,2.95
2023-01-28T04:34:08.503Z,2.97
2023-01-28T04:35:08.498Z,2.98
2023-01-28T04:36:08.491Z,2.97
2023-01-28T04:37:08.469Z,2.97
2023-01-28T04:38:08.452Z,2.91
2023-01-28T04:39:08.450Z,2.93
2023-01-28T04:40:08.442Z,2.94
2023-01-28T04:41:08.434Z,2.93
2023-01-28T04:42:08.391Z,2.93
2023-01-28T04:43:08.382Z,2.93
2023-01-28T04:44:08.374Z,2.90
2023-01-28T04:45:08.366Z,2.91
2023-01-28T04:46:08.369Z,2.91
2023-01-28T04:47:08.342Z,2.91
2023-01-28T04:48:08.314Z,2.90
2023-01-28T04:49:08.308Z,2.90
2023-01-28T04:50:08.323Z,2.88
2023-01-28T04:51:08.292Z,2.88
2023-01-28T04:52:08.267Z,2.88
2023-01-28T04:53:08.254Z,2.87
2023-01-28T04:54:08.234Z,2.83
2023-01-28T04:55:08.225Z,2.80
2023-01-28T04:56:08.221Z,2.82
2023-01-28T04:57:08.212Z,2.79
2023-01-28T04:58:08.199Z,2.80
2023-01-28T04:59:08.172Z,2.83
2023-01-28T05:00:08.162Z,2.85
2023-01-28T05:01:08.248Z,2.85
2023-01-28T05:02:08.146Z,2.88
2023-01-28T05:03:08.122Z,2.85
2023-01-28T05:04:08.101Z,2.85
2023-01-28T05:05:08.092Z,2.87
2023-01-28T05:06:08.091Z,2.87
2023-01-28T05:07:08.062Z,2.87
2023-01-28T05:08:08.063Z,2.85
2023-01-28T05:09:08.032Z,2.87
2023-01-28T05:10:08.030Z,2.87
2023-01-28T05:11:08.042Z,2.88
2023-01-28T05:12:07.993Z,2.90
2023-01-28T05:13:07.985Z,2.90
2023-01-28T05:14:07.981Z,2.88
2023-01-28T05:15:07.969Z,2.88
2023-01-28T05:16:07.940Z,2.91
2023-01-28T05:17:07.980Z,2.93
2023-01-28T05:18:07.921Z,2.95
2023-01-28T05:19:07.936Z,2.94
2023-01-28T05:20:07.894Z,2.97
2023-01-28T05:21:07.884Z,2.98
2023-01-28T05:22:07.884Z,2.97
2023-01-28T05:23:07.883Z,2.98
2023-01-28T05:24:07.944Z,2.98
2023-01-28T05:25:07.828Z,2.97
2023-01-28T05:26:07.813Z,2.94
2023-01-28T05:27:07.805Z,2.91
2023-01-28T05:28:14.971Z,2.90
2023-01-28T05:29:07.797Z,2.90
2023-01-28T05:30:07.772Z,2.91
2023-01-28T05:31:07.794Z,2.88
2023-01-28T05:32:07.810Z,2.90
2023-01-28T05:33:07.737Z,2.91
2023-01-28T05:34:07.719Z,2.91
2023-01-28T05:35:07.695Z,2.94
2023-01-28T05:36:07.688Z,2.95
2023-01-28T05:37:07.676Z,2.94
2023-01-28T05:38:07.682Z,2.95
2023-01-28T05:39:07.687Z,2.95
2023-01-28T05:40:07.625Z,2.94
2023-01-28T05:41:07.634Z,2.93
2023-01-28T05:42:07.604Z,2.94
2023-01-28T05:43:07.579Z,2.93
2023-01-28T05:44:07.596Z,2.91
2023-01-28T05:45:07.586Z,2.91
2023-01-28T05:46:07.591Z,2.93
2023-01-28T05:47:07.527Z,2.93
2023-01-28T05:48:07.527Z,2.93
2023-01-28T05:49:07.540Z,2.94
2023-01-28T05:50:07.498Z,2.94
2023-01-28T05:51:07.493Z,2.94
2023-01-28T05:52:07.504Z,2.91
2023-01-28T05:53:07.457Z,2.88
2023-01-28T05:54:07.465Z,2.87
2023-01-28T05:55:07.465Z,2.87
2023-01-28T05:56:07.425Z,2.82
2023-01-28T05:57:07.404Z,2.82
2023-01-28T05:58:07.394Z,2.80
2023-01-28T05:59:07.379Z,2.80
2023-01-28T06:00:07.388Z,2.80
2023-01-28T06:01:07.341Z,2.80
2023-01-28T06:02:07.385Z,2.79
2023-01-28T06:03:07.324Z,2.77
2023-01-28T06:04:07.317Z,2.75
2023-01-28T06:05:07.342Z,2.73
2023-01-28T06:06:07.295Z,2.72
2023-01-28T06:07:07.271Z,2.72
2023-01-28T06:08:07.275Z,2.70
2023-01-28T06:09:07.247Z,2.69
2023-01-28T06:10:07.255Z,2.69
2023-01-28T06:11:07.213Z,2.69
2023-01-28T06:12:07.218Z,2.69
2023-01-28T06:13:07.191Z,2.70
2023-01-28T06:14:07.177Z,2.70
2023-01-28T06:15:07.214Z,2.69
2023-01-28T06:16:07.173Z,2.69
2023-01-28T06:17:07.132Z,2.69
2023-01-28T06:18:07.124Z,2.69
2023-01-28T06:19:07.114Z,2.69
2023-01-28T06:20:07.118Z,2.72
2023-01-28T06:21:07.094Z,2.73
2023-01-28T06:22:07.088Z,2.75
2023-01-28T06:23:07.060Z,2.75
2023-01-28T06:24:07.080Z,2.77
2023-01-28T06:25:07.067Z,2.77
2023-01-28T06:26:07.013Z,2.82
2023-01-28T06:27:07.014Z,2.80
2023-01-28T06:28:06.993Z,2.82
2023-01-28T06:29:06.975Z,2.83
2023-01-28T06:30:06.982Z,2.85
2023-01-28T06:31:06.981Z,2.85
2023-01-28T06:32:06.991Z,2.83
2023-01-28T06:33:06.923Z,2.83
2023-01-28T06:34:06.944Z,2.83
2023-01-28T06:35:06.913Z,2.82
2023-01-28T06:36:06.883Z,2.83
2023-01-28T06:37:06.874Z,2.87
2023-01-28T06:38:06.884Z,2.88
2023-01-28T06:39:06.843Z,2.87
2023-01-28T06:40:06.843Z,2.90
2023-01-28T06:41:06.830Z,2.87
2023-01-28T06:42:06.803Z,2.90
2023-01-28T06:43:06.803Z,2.90
2023-01-28T06:44:06.774Z,2.91
2023-01-28T06:45:06.824Z,2.90
2023-01-28T06:46:06.831Z,2.85
2023-01-28T06:47:06.772Z,2.85
2023-01-28T06:48:08.828Z,2.85
2023-01-28T06:49:06.718Z,2.88
2023-01-28T06:50:06.709Z,2.85
2023-01-28T06:51:06.704Z,2.85
2023-01-28T06:52:06.685Z,2.83
2023-01-28T06:53:06.651Z,2.82
2023-01-28T06:54:06.642Z,2.83
2023-01-28T06:55:06.638Z,2.85
2023-01-28T06:56:06.704Z,2.82
2023-01-28T06:57:06.615Z,2.79
2023-01-28T06:58:06.603Z,2.76
2023-01-28T06:59:06.581Z,2.76
2023-01-28T07:00:06.579Z,2.76
2023-01-28T07:01:06.580Z,2.76
2023-01-28T07:02:06.573Z,2.76
2023-01-28T07:03:06.593Z,2.76
2023-01-28T07:04:06.515Z,2.75
2023-01-28T07:05:06.516Z,2.76
2023-01-28T07:06:06.518Z,2.75
2023-01-28T07:07:06.472Z,2.76
2023-01-28T07:08:06.481Z,2.77
2023-01-28T07:09:06.454Z,2.77
2023-01-28T07:10:06.432Z,2.82
2023-01-28T07:11:06.432Z,2.83
2023-01-28T07:12:06.420Z,2.83
2023-01-28T07:13:06.406Z,2.83
2023-01-28T07:14:06.395Z,2.83
2023-01-28T07:15:06.358Z,2.83
2023-01-28T07:16:06.388Z,2.83
2023-01-28T07:17:06.366Z,2.83
2023-01-28T07:18:06.349Z,2.85
2023-01-28T07:19:06.310Z,2.87
2023-01-28T07:20:06.312Z,2.85
2023-01-28T07:21:06.306Z,2.85
2023-01-28T07:22:06.281Z,2.85
2023-01-28T07:23:06.312Z,2.83
2023-01-28T07:24:06.299Z,2.83
2023-01-28T07:25:06.243Z,2.82
2023-01-28T07:26:06.230Z,2.83
2023-01-28T07:27:06.210Z,2.82
2023-01-28T07:28:06.206Z,2.80
2023-01-28T07:29:06.182Z,2.82
2023-01-28T07:30:06.172Z,2.80
2023-01-28T07:31:06.265Z,2.80
2023-01-28T07:32:06.145Z,2.80
2023-01-28T07:33:06.123Z,2.80
2023-01-28T07:34:06.114Z,2.80
2023-01-28T07:35:06.121Z,2.82
2023-01-28T07:36:06.132Z,2.82
2023-01-28T07:37:06.071Z,2.85
2023-01-28T07:38:06.059Z,2.88
2023-01-28T07:39:06.055Z,2.90
2023-01-28T07:40:06.041Z,2.85
2023-01-28T07:41:06.030Z,2.82
2023-01-28T07:42:06.016Z,2.80
2023-01-28T07:43:06.008Z,2.80
2023-01-28T07:44:05.977Z,2.83
2023-01-28T07:45:05.968Z,2.82
2023-01-28T07:46:05.957Z,2.79
2023-01-28T07:47:06.037Z,2.77
2023-01-28T07:48:05.938Z,2.79
2023-01-28T07:49:05.925Z,2.77
2023-01-28T07:50:05.909Z,2.77
2023-01-28T07:51:05.906Z,2.80
2023-01-28T07:52:05.904Z,2.80
2023-01-28T07:53:05.899Z,2.82
2023-01-28T07:54:05.890Z,2.76
2023-01-28T07:55:05.852Z,2.77
2023-01-28T07:56:05.819Z,2.79
2023-01-28T07:57:05.828Z,2.77
2023-01-28T07:58:05.797Z,2.79
2023-01-28T07:59:05.779Z,2.77
2023-01-28T08:00:05.782Z,2.77
2023-01-28T08:01:05.822Z,2.77
2023-01-28T08:02:05.768Z,2.77
2023-01-28T08:03:05.743Z,2.77
2023-01-28T08:04:05.971Z,2.82
2023-01-28T08:05:05.808Z,2.83
2023-01-28T08:06:05.696Z,2.85
2023-01-28T08:07:07.924Z,2.87
2023-01-28T08:08:05.655Z,2.90
2023-01-28T08:09:05.651Z,2.91
2023-01-28T08:10:05.660Z,2.91
2023-01-28T08:11:05.618Z,2.91
2023-01-28T08:12:05.649Z,2.93
2023-01-28T08:13:05.600Z,2.95
2023-01-28T08:14:05.586Z,2.93
2023-01-28T08:15:05.586Z,2.91
2023-01-28T08:16:05.627Z,2.87
2023-01-28T08:17:05.568Z,2.87
2023-01-28T08:18:05.557Z,2.91
2023-01-28T08:19:05.521Z,2.91
2023-01-28T08:20:05.508Z,2.90
2023-01-28T08:21:05.484Z,2.90
2023-01-28T08:22:05.500Z,2.91
2023-01-28T08:23:05.508Z,2.91
2023-01-28T08:24:05.520Z,2.93
2023-01-28T08:25:05.437Z,2.95
2023-01-28T08:26:05.444Z,2.95
2023-01-28T08:27:05.445Z,2.98
2023-01-28T08:28:05.404Z,2.98
2023-01-28T08:29:05.409Z,3.00
2023-01-28T08:30:05.378Z,3.00
2023-01-28T08:31:05.506Z,3.00
2023-01-28T08:32:05.377Z,3.01
2023-01-28T08:33:05.358Z,3.01
2023-01-28T08:34:05.324Z,3.03
2023-01-28T08:35:05.302Z,3.03
2023-01-28T08:36:05.315Z,3.06
2023-01-28T08:37:05.317Z,3.06
2023-01-28T08:38:05.277Z,3.08
2023-01-28T08:39:05.358Z,3.09
2023-01-28T08:40:05.255Z,3.06
2023-01-28T08:41:05.227Z,3.06
2023-01-28T08:42:05.269Z,3.06
2023-01-28T08:43:05.223Z,3.06
2023-01-28T08:44:05.202Z,3.08
2023-01-28T08:45:05.168Z,3.08
2023-01-28T08:46:05.193Z,3.08
2023-01-28T08:47:05.169Z,3.09
2023-01-28T08:48:05.142Z,3.11
2023-01-28T08:49:05.125Z,3.09
2023-01-28T08:50:05.119Z,3.08
2023-01-28T08:51:05.086Z,3.09
2023-01-28T08:52:05.087Z,3.11
2023-01-28T08:53:05.140Z,3.88
2023-01-28T08:54:05.056Z,4.64
2023-01-28T08:55:05.035Z,5.08
2023-01-28T08:56:05.032Z,4.71
2023-01-28T08:57:05.028Z,4.45
2023-01-28T08:58:05.017Z,4.31
2023-01-28T08:59:04.999Z,4.20
2023-01-28T09:00:04.975Z,4.10
2023-01-28T09:01:04.957Z,4.04
2023-01-28T09:02:04.985Z,3.95
2023-01-28T09:03:06.291Z,3.84
2023-01-28T09:04:05.102Z,3.70
2023-01-28T09:05:04.911Z,3.56
2023-01-28T09:06:04.909Z,3.49
2023-01-28T09:07:04.906Z,3.41
2023-01-28T09:08:04.876Z,3.34
2023-01-28T09:09:04.856Z,3.33
2023-01-28T09:10:04.849Z,3.24
2023-01-28T09:11:04.854Z,3.12
2023-01-28T09:12:04.844Z,3.06
2023-01-28T09:13:04.874Z,3.01
2023-01-28T09:14:04.776Z,2.97
2023-01-28T09:15:04.767Z,2.98
2023-01-28T09:16:04.818Z,2.98
2023-01-28T09:17:04.755Z,2.97
2023-01-28T09:18:04.776Z,2.88
2023-01-28T09:19:04.730Z,2.82
2023-01-28T09:20:04.718Z,2.80
2023-01-28T09:21:04.684Z,2.79
2023-01-28T09:22:04.704Z,2.79
2023-01-28T09:23:04.653Z,2.82
2023-01-28T09:24:04.745Z,2.82
2023-01-28T09:25:04.650Z,2.83
2023-01-28T09:26:04.636Z,2.87
2023-01-28T09:27:04.630Z,2.87
2023-01-28T09:28:04.606Z,2.88
2023-01-28T09:29:04.576Z,2.90
2023-01-28T09:30:04.575Z,2.90
2023-01-28T09:31:04.727Z,2.88
2023-01-28T09:32:04.628Z,2.90
2023-01-28T09:33:04.522Z,2.93
2023-01-28T09:34:04.522Z,2.93
2023-01-28T09:35:04.518Z,2.91
2023-01-28T09:36:04.493Z,2.93
2023-01-28T09:37:04.532Z,2.93
2023-01-28T09:38:04.477Z,2.93
2023-01-28T09:39:04.449Z,2.90
2023-01-28T09:40:04.441Z,2.91
2023-01-28T09:41:04.424Z,2.90
2023-01-28T09:42:04.470Z,2.90
2023-01-28T09:43:04.401Z,2.90
2023-01-28T09:44:04.362Z,2.88
2023-01-28T09:45:04.371Z,3.48
2023-01-28T09:46:04.369Z,4.36
2023-01-28T09:47:04.371Z,4.18
2023-01-28T09:48:04.333Z,4.09
2023-01-28T09:49:04.383Z,4.03
2023-01-28T09:50:04.316Z,3.94
2023-01-28T09:51:04.323Z,3.78
2023-01-28T09:52:04.283Z,3.67
2023-01-28T09:53:04.295Z,3.58
2023-01-28T09:54:04.263Z,3.52
2023-01-28T09:55:04.246Z,3.46
2023-01-28T09:56:04.271Z,3.36
2023-01-28T09:57:04.216Z,3.33
2023-01-28T09:58:04.236Z,3.31
2023-01-28T09:59:04.196Z,3.31
2023-01-28T10:00:04.179Z,3.31
2023-01-28T10:01:04.261Z,3.33
2023-01-28T10:02:04.157Z,3.31
2023-01-28T10:03:04.159Z,3.31
2023-01-28T10:04:04.193Z,3.31
2023-01-28T10:05:04.109Z,3.34
2023-01-28T10:06:04.088Z,3.40
2023-01-28T10:07:04.093Z,3.41
2023-01-28T10:08:04.078Z,3.45
2023-01-28T10:09:04.061Z,3.46
2023-01-28T10:10:04.044Z,3.43
2023-01-28T10:11:04.040Z,3.43
2023-01-28T10:12:04.000Z,3.40
2023-01-28T10:13:04.011Z,3.34
2023-01-28T10:14:03.982Z,3.31
2023-01-28T10:15:03.971Z,3.30
2023-01-28T10:16:03.960Z,3.30
2023-01-28T10:17:04.003Z,3.27
2023-01-28T10:18:16.450Z,3.30
2023-01-28T10:19:04.929Z,3.30
2023-01-28T10:20:03.900Z,3.30
2023-01-28T10:21:03.892Z,3.33
2023-01-28T10:22:03.891Z,3.33
2023-01-28T10:23:03.879Z,3.34
2023-01-28T10:24:03.967Z,3.34
2023-01-28T10:25:03.844Z,3.36
2023-01-28T10:26:03.835Z,3.33
2023-01-28T10:27:03.815Z,3.33
2023-01-28T10:28:03.821Z,3.33
2023-01-28T10:29:03.806Z,3.30
2023-01-28T10:30:03.796Z,3.30
2023-01-28T10:31:03.833Z,3.30
2023-01-28T10:32:03.784Z,3.27
2023-01-28T10:33:03.751Z,3.26
2023-01-28T10:34:03.732Z,3.22
2023-01-28T10:35:03.740Z,3.12
2023-01-28T10:36:03.693Z,3.09
2023-01-28T10:37:03.689Z,3.08
2023-01-28T10:38:03.690Z,3.08
2023-01-28T10:39:03.660Z,3.09
2023-01-28T10:40:03.640Z,3.11
2023-01-28T10:41:03.687Z,3.09
2023-01-28T10:42:03.619Z,3.12
2023-01-28T10:43:03.625Z,3.09
2023-01-28T10:44:03.595Z,3.13
2023-01-28T10:45:03.589Z,3.13
2023-01-28T10:46:03.614Z,3.16
2023-01-28T10:47:03.555Z,3.15
2023-01-28T10:48:03.569Z,3.12
2023-01-28T10:49:03.521Z,3.11
2023-01-28T10:50:03.527Z,3.09
2023-01-28T10:51:03.502Z,3.11
2023-01-28T10:52:03.481Z,3.12
2023-01-28T10:53:03.496Z,3.12
2023-01-28T10:54:03.453Z,3.13
2023-01-28T10:55:03.462Z,3.13
2023-01-28T10:56:03.435Z,3.09
2023-01-28T10:57:03.423Z,3.09
2023-01-28T10:58:03.422Z,3.11
2023-01-28T10:59:03.389Z,3.08
2023-01-28T11:00:03.411Z,3.11
2023-01-28T11:01:03.437Z,3.09
2023-01-28T11:02:03.394Z,3.08
2023-01-28T11:03:03.368Z,3.11
2023-01-28T11:04:03.331Z,3.13
2023-01-28T11:05:03.321Z,3.15
2023-01-28T11:06:03.306Z,3.19
2023-01-28T11:07:03.349Z,3.21
2023-01-28T11:08:03.298Z,3.24
2023-01-28T11:09:03.259Z,3.26
2023-01-28T11:10:03.254Z,3.29
2023-01-28T11:11:03.229Z,3.31
2023-01-28T11:12:03.456Z,3.33
2023-01-28T11:13:03.233Z,3.34
2023-01-28T11:14:03.351Z,3.37
2023-01-28T11:15:03.266Z,3.37
2023-01-28T11:16:03.191Z,3.40
2023-01-28T11:17:03.159Z,3.41
2023-01-28T11:18:03.160Z,3.45
2023-01-28T11:19:03.139Z,3.43
2023-01-28T11:20:03.110Z,3.40
2023-01-28T11:21:03.121Z,3.36
2023-01-28T11:22:03.121Z,3.31
2023-01-28T11:23:03.069Z,3.18
2023-01-28T11:24:03.115Z,3.18
2023-01-28T11:25:03.079Z,3.21
2023-01-28T11:26:03.028Z,3.24
2023-01-28T11:27:03.101Z,3.29
2023-01-28T11:28:03.103Z,3.33
2023-01-28T11:29:03.050Z,3.36
2023-01-28T11:30:03.031Z,3.40
2023-01-28T11:31:03.231Z,3.41
2023-01-28T11:32:03.059Z,3.43
2023-01-28T11:33:03.021Z,3.46
2023-01-28T11:34:03.364Z,3.46
2023-01-28T11:35:02.998Z,3.46
2023-01-28T11:36:03.140Z,3.45
2023-01-28T11:37:02.983Z,3.45
2023-01-28T11:38:02.935Z,3.46
2023-01-28T11:39:02.978Z,3.45
2023-01-28T11:40:02.909Z,3.43
2023-01-28T11:41:03.001Z,3.53
2023-01-28T11:42:03.908Z,4.61
2023-01-28T11:43:02.852Z,5.91
2023-01-28T11:44:02.840Z,6.92
2023-01-28T11:45:02.860Z,7.75
2023-01-28T11:46:05.217Z,8.24
2023-01-28T11:47:02.917Z,8.72
2023-01-28T11:48:02.813Z,9.08
2023-01-28T11:49:02.888Z,8.63
2023-01-28T11:50:03.179Z,8.06
2023-01-28T11:51:02.798Z,7.23
2023-01-28T11:52:02.758Z,6.59
2023-01-28T11:53:06.486Z,6.01
2023-01-28T11:54:02.829Z,5.67
2023-01-28T11:55:02.758Z,5.25
2023-01-28T11:56:02.688Z,5.02
2023-01-28T11:57:02.717Z,4.78
2023-01-28T11:58:02.684Z,4.45
2023-01-28T11:59:02.656Z,4.31
2023-01-28T12:00:02.800Z,4.18
2023-01-28T12:01:02.759Z,4.07
2023-01-28T12:02:02.635Z,4.04
2023-01-28T12:03:03.590Z,4.02
2023-01-28T12:04:02.829Z,4.00
2023-01-28T12:05:02.609Z,3.99
2023-01-28T12:06:02.768Z,4.00
2023-01-28T12:07:02.588Z,3.92
2023-01-28T12:08:02.539Z,3.94
2023-01-28T12:09:02.540Z,3.94
2023-01-28T12:10:02.574Z,3.94
2023-01-28T12:11:02.497Z,3.96
2023-01-28T12:12:04.805Z,3.96
2023-01-28T12:13:02.472Z,3.99
2023-01-28T12:14:02.728Z,3.96
2023-01-28T12:15:02.489Z,3.96
2023-01-28T12:16:02.484Z,4.00
2023-01-28T12:17:02.410Z,4.03
2023-01-28T12:18:02.919Z,4.04
2023-01-28T12:19:02.466Z,4.02
2023-01-28T12:20:02.370Z,3.96
2023-01-28T12:21:02.439Z,3.95
2023-01-28T12:22:02.376Z,4.40
2023-01-28T12:23:02.340Z,4.83
2023-01-28T12:24:03.376Z,4.87
2023-01-28T12:25:02.471Z,4.83
2023-01-28T12:26:03.103Z,4.79
2023-01-28T12:27:03.375Z,4.71
2023-01-28T12:28:02.551Z,4.64
2023-01-28T12:29:02.974Z,4.66
2023-01-28T12:30:02.686Z,5.80
2023-01-28T12:31:02.963Z,6.78
2023-01-28T12:32:02.334Z,7.84
2023-01-28T12:33:02.295Z,8.74
2023-01-28T12:34:02.363Z,9.21
2023-01-28T12:35:02.298Z,9.62
2023-01-28T12:36:02.269Z,9.34
2023-01-28T12:37:02.365Z,8.86
2023-01-28T12:38:02.235Z,8.34
2023-01-28T12:39:02.381Z,7.83
2023-01-28T12:40:02.190Z,7.33
2023-01-28T12:41:02.213Z,6.83
2023-01-28T12:42:03.950Z,6.32
2023-01-28T12:43:02.107Z,5.98
2023-01-28T12:44:02.337Z,5.67
2023-01-28T12:45:02.995Z,5.49
2023-01-28T12:46:04.229Z,5.64
2023-01-28T12:47:04.223Z,5.56
2023-01-28T12:48:02.102Z,5.38
2023-01-28T12:49:04.204Z,5.19
2023-01-28T12:50:01.995Z,4.97
2023-01-28T12:51:01.992Z,4.79
2023-01-28T12:52:01.981Z,4.67
2023-01-28T12:53:01.970Z,4.63
2023-01-28T12:54:01.965Z,4.53
2023-01-28T12:55:01.999Z,4.43
2023-01-28T12:56:01.958Z,4.36
2023-01-28T12:57:01.962Z,4.28
2023-01-28T12:58:01.887Z,4.20
2023-01-28T12:59:02.020Z,4.12
2023-01-28T13:00:02.121Z,4.06
2023-01-28T13:01:01.947Z,4.04
2023-01-28T13:02:01.921Z,4.02
2023-01-28T13:03:02.282Z,3.99
2023-01-28T13:04:01.794Z,3.95
2023-01-28T13:05:02.574Z,3.94
2023-01-28T13:06:01.762Z,3.95
2023-01-28T13:07:01.695Z,3.95
2023-01-28T13:08:01.690Z,3.95
2023-01-28T13:09:01.666Z,3.95
2023-01-28T13:10:01.686Z,3.96
2023-01-28T13:11:01.642Z,4.00
2023-01-28T13:12:01.631Z,3.99
2023-01-28T13:13:01.638Z,4.00
2023-01-28T13:14:01.616Z,3.99
2023-01-28T13:15:01.616Z,3.92
2023-01-28T13:16:01.640Z,3.94
2023-01-28T13:17:01.598Z,3.92
2023-01-28T13:18:01.556Z,3.96